PAL210 YMML-RPLL
Flight info
| Callsign | PAL210 |
|---|---|
| Flight time | N/A |
| Altitude | 38000 |
| Route | KEPPA DCT NATYA DCT IDKEG DCT TUNVI DCT BOU/N0467F400 DCT KAKTU DCT GTE DCT TOREX B472 IBAGO IBAGO1A |
| Aircraft | A333/H-SDE3GHIJ2J3J5M1RVWXY/LB2D1 |
Departure
| Time | 2026-04-30 05:35 |
|---|---|
| Airport | Melbourne Airport (YMML) |
Arrival
| Time | N/A |
|---|---|
| Airport | Ninoy Aquino International Airport (RPLL) |
| Time | Latitude | Longitude | Altitude | Speed | Heading |
|---|---|---|---|---|---|
| 2026-04-30 04:59 | -37.66914 | 144.84513 | 395 ft | 0 kts | 11° |
| 2026-04-30 05:22 | -37.66938 | 144.84506 | 392 ft | 4 kts | 14° |
| 2026-04-30 05:22 | -37.66964 | 144.84498 | 389 ft | 4 kts | 17° |
| 2026-04-30 05:23 | -37.66989 | 144.84487 | 393 ft | 4 kts | 22° |
| 2026-04-30 05:23 | -37.67013 | 144.84472 | 393 ft | 4 kts | 35° |
| 2026-04-30 05:23 | -37.67030 | 144.84452 | 392 ft | 2 kts | 60° |
| 2026-04-30 05:23 | -37.67042 | 144.84423 | 391 ft | 4 kts | 69° |
| 2026-04-30 05:24 | -37.67050 | 144.84391 | 391 ft | 4 kts | 78° |
| 2026-04-30 05:24 | -37.67054 | 144.84357 | 390 ft | 4 kts | 85° |
| 2026-04-30 05:24 | -37.67057 | 144.84324 | 390 ft | 5 kts | 82° |
| 2026-04-30 05:24 | -37.67057 | 144.84292 | 389 ft | 5 kts | 109° |
| 2026-04-30 05:25 | -37.67043 | 144.84263 | 389 ft | 5 kts | 138° |
| 2026-04-30 05:25 | -37.67021 | 144.84244 | 389 ft | 5 kts | 155° |
| 2026-04-30 05:25 | -37.66997 | 144.84233 | 390 ft | 5 kts | 165° |
| 2026-04-30 05:25 | -37.66970 | 144.84226 | 390 ft | 5 kts | 171° |
| 2026-04-30 05:26 | -37.66960 | 144.84224 | 391 ft | 4 kts | 172° |
| 2026-04-30 05:28 | -37.66961 | 144.84224 | 390 ft | 1 kts | 172° |
| 2026-04-30 05:28 | -37.66988 | 144.84229 | 390 ft | 6 kts | 172° |
| 2026-04-30 05:28 | -37.67039 | 144.84238 | 389 ft | 9 kts | 171° |
| 2026-04-30 05:29 | -37.67107 | 144.84251 | 387 ft | 11 kts | 171° |
| 2026-04-30 05:29 | -37.67192 | 144.84267 | 386 ft | 14 kts | 171° |
| 2026-04-30 05:29 | -37.67293 | 144.84286 | 384 ft | 16 kts | 172° |
| 2026-04-30 05:29 | -37.67410 | 144.84308 | 381 ft | 18 kts | 171° |
| 2026-04-30 05:30 | -37.67541 | 144.84333 | 378 ft | 21 kts | 171° |
| 2026-04-30 05:30 | -37.67680 | 144.84359 | 378 ft | 20 kts | 171° |
| 2026-04-30 05:30 | -37.67829 | 144.84386 | 369 ft | 21 kts | 172° |
| 2026-04-30 05:30 | -37.67969 | 144.84412 | 367 ft | 21 kts | 172° |
| 2026-04-30 05:31 | -37.68091 | 144.84435 | 363 ft | 18 kts | 171° |
| 2026-04-30 05:31 | -37.68225 | 144.84460 | 363 ft | 19 kts | 171° |
| 2026-04-30 05:31 | -37.68339 | 144.84467 | 355 ft | 16 kts | 196° |
| 2026-04-30 05:31 | -37.68433 | 144.84396 | 358 ft | 16 kts | 216° |
| 2026-04-30 05:32 | -37.68510 | 144.84328 | 356 ft | 10 kts | 218° |
| 2026-04-30 05:32 | -37.68546 | 144.84264 | 352 ft | 4 kts | 253° |
| 2026-04-30 05:32 | -37.68547 | 144.84260 | 352 ft | 0 kts | 254° |
| 2026-04-30 05:32 | -37.68548 | 144.84254 | 353 ft | 2 kts | 256° |
| 2026-04-30 05:33 | -37.68554 | 144.84215 | 354 ft | 7 kts | 260° |
| 2026-04-30 05:33 | -37.68561 | 144.84155 | 354 ft | 8 kts | 261° |
| 2026-04-30 05:33 | -37.68540 | 144.84098 | 356 ft | 7 kts | 332° |
| 2026-04-30 05:33 | -37.68486 | 144.84083 | 353 ft | 15 kts | 351° |
| 2026-04-30 05:34 | -37.68213 | 144.84033 | 362 ft | 67 kts | 352° |
| 2026-04-30 05:34 | -37.67587 | 144.83915 | 372 ft | 116 kts | 351° |
| 2026-04-30 05:34 | -37.66644 | 144.83733 | 402 ft | 158 kts | 351° |
| 2026-04-30 05:34 | -37.65490 | 144.83502 | 756 ft | 171 kts | 354° |
| 2026-04-30 05:35 | -37.64286 | 144.83268 | 1310 ft | 179 kts | 353° |
| 2026-04-30 05:35 | -37.63066 | 144.83049 | 2061 ft | 177 kts | 354° |
| 2026-04-30 05:35 | -37.61835 | 144.82828 | 2729 ft | 180 kts | 352° |
| 2026-04-30 05:35 | -37.60575 | 144.82599 | 3293 ft | 189 kts | 352° |
| 2026-04-30 05:36 | -37.59194 | 144.82346 | 3602 ft | 214 kts | 351° |
| 2026-04-30 05:36 | -37.57651 | 144.82042 | 3946 ft | 237 kts | 348° |
| 2026-04-30 05:36 | -37.56066 | 144.81368 | 4602 ft | 245 kts | 333° |
| 2026-04-30 05:36 | -37.54660 | 144.80136 | 5369 ft | 248 kts | 321° |
| 2026-04-30 05:37 | -37.53349 | 144.78701 | 6161 ft | 251 kts | 319° |
| 2026-04-30 05:37 | -37.52042 | 144.77222 | 6928 ft | 254 kts | 319° |
| 2026-04-30 05:37 | -37.50710 | 144.75719 | 7607 ft | 262 kts | 319° |
| 2026-04-30 05:37 | -37.49304 | 144.74142 | 8045 ft | 279 kts | 319° |
| 2026-04-30 05:38 | -37.47825 | 144.72490 | 8654 ft | 288 kts | 319° |
| 2026-04-30 05:38 | -37.46337 | 144.70831 | 9402 ft | 292 kts | 319° |
| 2026-04-30 05:38 | -37.44803 | 144.69123 | 10161 ft | 296 kts | 319° |
| 2026-04-30 05:38 | -37.43248 | 144.67394 | 10836 ft | 300 kts | 319° |
| 2026-04-30 05:39 | -37.41655 | 144.65624 | 11247 ft | 314 kts | 319° |
| 2026-04-30 05:39 | -37.39974 | 144.63758 | 11589 ft | 329 kts | 319° |
| 2026-04-30 05:39 | -37.38262 | 144.61860 | 12127 ft | 336 kts | 319° |
| 2026-04-30 05:39 | -37.36499 | 144.59905 | 12797 ft | 340 kts | 319° |
| 2026-04-30 05:40 | -37.34713 | 144.57927 | 13443 ft | 344 kts | 319° |
| 2026-04-30 05:40 | -37.32929 | 144.55954 | 14108 ft | 348 kts | 318° |
| 2026-04-30 05:40 | -37.31105 | 144.53937 | 14704 ft | 351 kts | 319° |
| 2026-04-30 05:40 | -37.29264 | 144.51903 | 15322 ft | 354 kts | 319° |
| 2026-04-30 05:41 | -37.27411 | 144.49856 | 15968 ft | 356 kts | 319° |
| 2026-04-30 05:41 | -37.25547 | 144.47798 | 16608 ft | 358 kts | 319° |
| 2026-04-30 05:41 | -37.23674 | 144.45733 | 17234 ft | 360 kts | 319° |
| 2026-04-30 05:41 | -37.21786 | 144.43652 | 17836 ft | 362 kts | 319° |
| 2026-04-30 05:42 | -37.19911 | 144.41587 | 18420 ft | 365 kts | 319° |
| 2026-04-30 05:42 | -37.17997 | 144.39480 | 18922 ft | 368 kts | 319° |
| 2026-04-30 05:42 | -37.16065 | 144.37356 | 19430 ft | 371 kts | 319° |
| 2026-04-30 05:42 | -37.14120 | 144.35218 | 19922 ft | 373 kts | 319° |
| 2026-04-30 05:43 | -37.12162 | 144.33067 | 20432 ft | 375 kts | 319° |
| 2026-04-30 05:43 | -37.10193 | 144.30907 | 20945 ft | 377 kts | 319° |
| 2026-04-30 05:43 | -37.08212 | 144.28733 | 21433 ft | 380 kts | 319° |
| 2026-04-30 05:43 | -37.06219 | 144.26550 | 21923 ft | 382 kts | 319° |
| 2026-04-30 05:44 | -37.04241 | 144.24384 | 22387 ft | 384 kts | 319° |
| 2026-04-30 05:44 | -37.02217 | 144.22168 | 22766 ft | 389 kts | 319° |
| 2026-04-30 05:44 | -37.00168 | 144.19928 | 23175 ft | 393 kts | 319° |
| 2026-04-30 05:44 | -36.98103 | 144.17671 | 23619 ft | 395 kts | 319° |
| 2026-04-30 05:45 | -36.96024 | 144.15401 | 24027 ft | 398 kts | 319° |
| 2026-04-30 05:45 | -36.93932 | 144.13119 | 24371 ft | 400 kts | 319° |
| 2026-04-30 05:45 | -36.91830 | 144.10827 | 24741 ft | 402 kts | 319° |
| 2026-04-30 05:45 | -36.89741 | 144.08552 | 25097 ft | 404 kts | 319° |
| 2026-04-30 05:46 | -36.87617 | 144.06240 | 25482 ft | 406 kts | 319° |
| 2026-04-30 05:46 | -36.85486 | 144.03921 | 25839 ft | 408 kts | 319° |
| 2026-04-30 05:46 | -36.83339 | 144.01588 | 26203 ft | 410 kts | 319° |
| 2026-04-30 05:46 | -36.81132 | 143.99324 | 26571 ft | 412 kts | 323° |
| 2026-04-30 05:47 | -36.78697 | 143.97436 | 26920 ft | 414 kts | 332° |
| 2026-04-30 05:47 | -36.76043 | 143.96014 | 27277 ft | 416 kts | 338° |
| 2026-04-30 05:47 | -36.73314 | 143.94781 | 27625 ft | 419 kts | 340° |
| 2026-04-30 05:47 | -36.70579 | 143.93646 | 27962 ft | 420 kts | 341° |
| 2026-04-30 05:48 | -36.67790 | 143.92531 | 28306 ft | 422 kts | 341° |
| 2026-04-30 05:48 | -36.64982 | 143.91412 | 28646 ft | 424 kts | 341° |
| 2026-04-30 05:48 | -36.62168 | 143.90282 | 28971 ft | 426 kts | 341° |
| 2026-04-30 05:48 | -36.59344 | 143.89134 | 29281 ft | 428 kts | 340° |
| 2026-04-30 05:49 | -36.56506 | 143.87971 | 29604 ft | 431 kts | 340° |
| 2026-04-30 05:49 | -36.53659 | 143.86796 | 29937 ft | 432 kts | 340° |
| 2026-04-30 05:49 | -36.50797 | 143.85612 | 30279 ft | 434 kts | 340° |
| 2026-04-30 05:49 | -36.47925 | 143.84424 | 30564 ft | 436 kts | 340° |
| 2026-04-30 05:50 | -36.45042 | 143.83231 | 30836 ft | 438 kts | 340° |
| 2026-04-30 05:50 | -36.42182 | 143.82050 | 31111 ft | 439 kts | 340° |
| 2026-04-30 05:50 | -36.39278 | 143.80851 | 31377 ft | 441 kts | 340° |
| 2026-04-30 05:50 | -36.36358 | 143.79648 | 31666 ft | 442 kts | 341° |
| 2026-04-30 05:51 | -36.33446 | 143.78449 | 32058 ft | 440 kts | 341° |
| 2026-04-30 05:51 | -36.30544 | 143.77256 | 32472 ft | 438 kts | 341° |
| 2026-04-30 05:51 | -36.27657 | 143.76070 | 32867 ft | 437 kts | 341° |
| 2026-04-30 05:51 | -36.24777 | 143.74887 | 33233 ft | 435 kts | 341° |
| 2026-04-30 05:52 | -36.21906 | 143.73710 | 33619 ft | 434 kts | 341° |
| 2026-04-30 05:52 | -36.19090 | 143.72555 | 34001 ft | 432 kts | 341° |
| 2026-04-30 05:52 | -36.16237 | 143.71386 | 34331 ft | 431 kts | 341° |
| 2026-04-30 05:52 | -36.13396 | 143.70222 | 34573 ft | 431 kts | 341° |
| 2026-04-30 05:53 | -36.10548 | 143.69056 | 34805 ft | 431 kts | 341° |
| 2026-04-30 05:53 | -36.07698 | 143.67891 | 35028 ft | 432 kts | 341° |
| 2026-04-30 05:53 | -36.04846 | 143.66726 | 35253 ft | 432 kts | 341° |
| 2026-04-30 05:53 | -36.01991 | 143.65561 | 35493 ft | 432 kts | 341° |
| 2026-04-30 05:54 | -35.99177 | 143.64413 | 35716 ft | 432 kts | 340° |
| 2026-04-30 05:54 | -35.96326 | 143.63250 | 35933 ft | 432 kts | 340° |
| 2026-04-30 05:54 | -35.93472 | 143.62088 | 36154 ft | 432 kts | 340° |
| 2026-04-30 05:54 | -35.90617 | 143.60927 | 36353 ft | 432 kts | 340° |
| 2026-04-30 05:55 | -35.87757 | 143.59763 | 36541 ft | 433 kts | 340° |
| 2026-04-30 05:55 | -35.84893 | 143.58600 | 36745 ft | 433 kts | 340° |
| 2026-04-30 05:55 | -35.82033 | 143.57439 | 36945 ft | 433 kts | 340° |
| 2026-04-30 05:55 | -35.79169 | 143.56277 | 37153 ft | 433 kts | 340° |
| 2026-04-30 05:56 | -35.76302 | 143.55115 | 37351 ft | 433 kts | 340° |
| 2026-04-30 05:56 | -35.73442 | 143.53956 | 37546 ft | 433 kts | 340° |
| 2026-04-30 05:56 | -35.70615 | 143.52811 | 37734 ft | 433 kts | 340° |
| 2026-04-30 05:56 | -35.67746 | 143.51651 | 37910 ft | 434 kts | 340° |
| 2026-04-30 05:57 | -35.64878 | 143.50492 | 38058 ft | 434 kts | 340° |
| 2026-04-30 05:57 | -35.62007 | 143.49332 | 38225 ft | 435 kts | 340° |
| 2026-04-30 05:57 | -35.56238 | 143.47004 | 38273 ft | 437 kts | 340° |
| 2026-04-30 05:58 | -35.50501 | 143.44694 | 38269 ft | 437 kts | 340° |
| 2026-04-30 05:58 | -35.44732 | 143.42374 | 38252 ft | 437 kts | 340° |
| 2026-04-30 05:59 | -35.38952 | 143.40053 | 38270 ft | 437 kts | 340° |
| 2026-04-30 05:59 | -35.33163 | 143.37732 | 38257 ft | 438 kts | 340° |
| 2026-04-30 06:00 | -35.27375 | 143.35414 | 38262 ft | 438 kts | 340° |
| 2026-04-30 06:00 | -35.21626 | 143.33116 | 38262 ft | 438 kts | 340° |
| 2026-04-30 06:01 | -35.15837 | 143.30805 | 38259 ft | 438 kts | 340° |
| 2026-04-30 06:01 | -35.10038 | 143.28494 | 38257 ft | 438 kts | 340° |
| 2026-04-30 06:02 | -35.04237 | 143.26185 | 38266 ft | 438 kts | 340° |
| 2026-04-30 06:02 | -34.98430 | 143.23889 | 38253 ft | 440 kts | 342° |
| 2026-04-30 06:03 | -34.92473 | 143.22253 | 38255 ft | 443 kts | 346° |
| 2026-04-30 06:03 | -34.86399 | 143.20850 | 38257 ft | 444 kts | 347° |
| 2026-04-30 06:04 | -34.80315 | 143.19499 | 38257 ft | 444 kts | 347° |
| 2026-04-30 06:05 | -34.71191 | 143.17462 | 38261 ft | 445 kts | 347° |
| 2026-04-30 06:05 | -34.65138 | 143.16101 | 38255 ft | 445 kts | 347° |
| 2026-04-30 06:06 | -34.59041 | 143.14731 | 38259 ft | 445 kts | 347° |
| 2026-04-30 06:06 | -34.52945 | 143.13363 | 38257 ft | 446 kts | 347° |
| 2026-04-30 06:07 | -34.46849 | 143.11997 | 38253 ft | 446 kts | 347° |
| 2026-04-30 06:07 | -34.40793 | 143.10643 | 38256 ft | 446 kts | 347° |
| 2026-04-30 06:08 | -34.34693 | 143.09281 | 38254 ft | 446 kts | 347° |
| 2026-04-30 06:08 | -34.28591 | 143.07920 | 38255 ft | 446 kts | 347° |
| 2026-04-30 06:09 | -34.22492 | 143.06562 | 38254 ft | 446 kts | 347° |
| 2026-04-30 06:09 | -34.16427 | 143.05213 | 38251 ft | 446 kts | 347° |
| 2026-04-30 06:10 | -34.10319 | 143.03857 | 38248 ft | 446 kts | 347° |
| 2026-04-30 06:10 | -34.04210 | 143.02503 | 38248 ft | 446 kts | 347° |
| 2026-04-30 06:11 | -33.98099 | 143.01150 | 38251 ft | 447 kts | 347° |
| 2026-04-30 06:11 | -33.92030 | 142.99809 | 38248 ft | 447 kts | 347° |
| 2026-04-30 06:12 | -33.85905 | 142.98457 | 38252 ft | 448 kts | 347° |
| 2026-04-30 06:12 | -33.79772 | 142.97105 | 38249 ft | 448 kts | 347° |
| 2026-04-30 06:13 | -33.73641 | 142.95756 | 38251 ft | 448 kts | 347° |
| 2026-04-30 06:13 | -33.67546 | 142.94417 | 38249 ft | 448 kts | 347° |
| 2026-04-30 06:14 | -33.61412 | 142.93071 | 38238 ft | 448 kts | 347° |
| 2026-04-30 06:14 | -33.55278 | 142.91727 | 38247 ft | 449 kts | 347° |
| 2026-04-30 06:15 | -33.49132 | 142.90382 | 38250 ft | 449 kts | 347° |
| 2026-04-30 06:15 | -33.43030 | 142.89049 | 38250 ft | 449 kts | 347° |
| 2026-04-30 06:16 | -33.36886 | 142.87709 | 38248 ft | 449 kts | 347° |
| 2026-04-30 06:16 | -33.30726 | 142.86366 | 38250 ft | 451 kts | 347° |
| 2026-04-30 06:17 | -33.24551 | 142.85023 | 38247 ft | 451 kts | 347° |
| 2026-04-30 06:17 | -33.18375 | 142.83681 | 38244 ft | 451 kts | 347° |
| 2026-04-30 06:18 | -33.12233 | 142.82349 | 38243 ft | 452 kts | 347° |
| 2026-04-30 06:18 | -33.06032 | 142.81005 | 38247 ft | 454 kts | 347° |
| 2026-04-30 06:19 | -32.99820 | 142.79662 | 38248 ft | 454 kts | 347° |
| 2026-04-30 06:19 | -32.93606 | 142.78320 | 38247 ft | 454 kts | 347° |
| 2026-04-30 06:20 | -32.87433 | 142.76988 | 38242 ft | 454 kts | 347° |
| 2026-04-30 06:20 | -32.81213 | 142.75649 | 38239 ft | 454 kts | 347° |
| 2026-04-30 06:21 | -32.74991 | 142.74310 | 38243 ft | 454 kts | 347° |
| 2026-04-30 06:21 | -32.68809 | 142.72983 | 38237 ft | 454 kts | 347° |
| 2026-04-30 06:22 | -32.62584 | 142.71648 | 38240 ft | 455 kts | 347° |
| 2026-04-30 06:22 | -32.56357 | 142.70314 | 38238 ft | 455 kts | 347° |
| 2026-04-30 06:23 | -32.50127 | 142.68982 | 38241 ft | 455 kts | 347° |
| 2026-04-30 06:23 | -32.43938 | 142.67660 | 38232 ft | 455 kts | 347° |
| 2026-04-30 06:24 | -32.37703 | 142.66330 | 38236 ft | 456 kts | 347° |
| 2026-04-30 06:24 | -32.31461 | 142.65001 | 38239 ft | 456 kts | 347° |
| 2026-04-30 06:25 | -32.25220 | 142.63673 | 38237 ft | 456 kts | 347° |
| 2026-04-30 06:25 | -32.19020 | 142.62357 | 38235 ft | 456 kts | 347° |
| 2026-04-30 06:26 | -32.12777 | 142.61033 | 38232 ft | 456 kts | 347° |
| 2026-04-30 06:26 | -32.06537 | 142.59711 | 38240 ft | 456 kts | 347° |
| 2026-04-30 06:27 | -32.00290 | 142.58390 | 38241 ft | 456 kts | 347° |
| 2026-04-30 06:27 | -31.94082 | 142.57079 | 38234 ft | 457 kts | 346° |
| 2026-04-30 06:28 | -31.87821 | 142.55758 | 38234 ft | 457 kts | 346° |
| 2026-04-30 06:28 | -31.81557 | 142.54439 | 38234 ft | 457 kts | 346° |
| 2026-04-30 06:29 | -31.75298 | 142.53123 | 38223 ft | 457 kts | 346° |
| 2026-04-30 06:29 | -31.69029 | 142.51806 | 38233 ft | 458 kts | 346° |
| 2026-04-30 06:30 | -31.62788 | 142.50497 | 38233 ft | 459 kts | 346° |
| 2026-04-30 06:30 | -31.56495 | 142.49179 | 38233 ft | 460 kts | 346° |
| 2026-04-30 06:31 | -31.50197 | 142.47862 | 38229 ft | 460 kts | 346° |
| 2026-04-30 06:31 | -31.43893 | 142.46545 | 38233 ft | 461 kts | 346° |
| 2026-04-30 06:32 | -31.37580 | 142.45228 | 38232 ft | 461 kts | 346° |
| 2026-04-30 06:32 | -31.31307 | 142.43922 | 38230 ft | 461 kts | 346° |
| 2026-04-30 06:33 | -31.24987 | 142.42607 | 38229 ft | 461 kts | 346° |
| 2026-04-30 06:33 | -31.18665 | 142.41293 | 38230 ft | 462 kts | 346° |